sensor_id;sensor_type;location;lat;lon;timestamp;temperature;humidity
9151;DHT22;4610;50.006;7.490;2022-07-18T00:01:50;13.20;99.90
9151;DHT22;4610;50.006;7.490;2022-07-18T00:04:16;13.10;99.90
9151;DHT22;4610;50.006;7.490;2022-07-18T00:06:43;13.10;99.90
9151;DHT22;4610;50.006;7.490;2022-07-18T00:09:10;13.00;99.90
9151;DHT22;4610;50.006;7.490;2022-07-18T00:11:39;13.00;99.90
9151;DHT22;4610;50.006;7.490;2022-07-18T00:14:06;12.90;99.90
9151;DHT22;4610;50.006;7.490;2022-07-18T00:16:32;12.60;99.90
9151;DHT22;4610;50.006;7.490;2022-07-18T00:18:59;12.60;99.90
9151;DHT22;4610;50.006;7.490;2022-07-18T00:21:28;12.40;99.90
9151;DHT22;4610;50.006;7.490;2022-07-18T00:23:55;12.40;99.90
9151;DHT22;4610;50.006;7.490;2022-07-18T00:26:21;12.30;99.90
9151;DHT22;4610;50.006;7.490;2022-07-18T00:28:50;12.30;99.90
9151;DHT22;4610;50.006;7.490;2022-07-18T00:31:17;12.30;99.90
9151;DHT22;4610;50.006;7.490;2022-07-18T00:33:43;12.30;99.90
9151;DHT22;4610;50.006;7.490;2022-07-18T00:36:11;12.40;99.90
9151;DHT22;4610;50.006;7.490;2022-07-18T00:38:38;12.40;99.90
9151;DHT22;4610;50.006;7.490;2022-07-18T00:41:05;12.40;99.90
9151;DHT22;4610;50.006;7.490;2022-07-18T00:43:33;12.50;99.90
9151;DHT22;4610;50.006;7.490;2022-07-18T00:46:01;12.50;99.90
9151;DHT22;4610;50.006;7.490;2022-07-18T00:48:28;12.50;99.90
9151;DHT22;4610;50.006;7.490;2022-07-18T00:50:55;12.50;99.90
9151;DHT22;4610;50.006;7.490;2022-07-18T00:53:22;12.50;99.90
9151;DHT22;4610;50.006;7.490;2022-07-18T00:55:49;12.50;99.90
9151;DHT22;4610;50.006;7.490;2022-07-18T00:58:16;12.60;99.90
9151;DHT22;4610;50.006;7.490;2022-07-18T01:00:43;12.60;99.90
9151;DHT22;4610;50.006;7.490;2022-07-18T01:03:29;12.50;99.90
9151;DHT22;4610;50.006;7.490;2022-07-18T01:05:56;12.40;99.90
9151;DHT22;4610;50.006;7.490;2022-07-18T01:08:23;12.40;99.90
9151;DHT22;4610;50.006;7.490;2022-07-18T01:10:50;12.30;99.90
9151;DHT22;4610;50.006;7.490;2022-07-18T01:13:19;12.20;99.90
9151;DHT22;4610;50.006;7.490;2022-07-18T01:15:47;12.10;99.90
9151;DHT22;4610;50.006;7.490;2022-07-18T01:18:13;12.00;99.90
9151;DHT22;4610;50.006;7.490;2022-07-18T01:20:42;12.00;99.90
9151;DHT22;4610;50.006;7.490;2022-07-18T01:23:09;12.00;99.90
9151;DHT22;4610;50.006;7.490;2022-07-18T01:25:36;12.00;99.90
9151;DHT22;4610;50.006;7.490;2022-07-18T01:28:03;11.90;99.90
9151;DHT22;4610;50.006;7.490;2022-07-18T01:30:30;11.90;99.90
9151;DHT22;4610;50.006;7.490;2022-07-18T01:32:58;11.90;99.90
9151;DHT22;4610;50.006;7.490;2022-07-18T01:35:26;11.90;99.90
9151;DHT22;4610;50.006;7.490;2022-07-18T01:37:57;11.80;99.90
9151;DHT22;4610;50.006;7.490;2022-07-18T01:40:24;11.70;99.90
9151;DHT22;4610;50.006;7.490;2022-07-18T01:42:51;11.60;99.90
9151;DHT22;4610;50.006;7.490;2022-07-18T01:45:19;11.70;99.90
9151;DHT22;4610;50.006;7.490;2022-07-18T01:47:47;11.70;99.90
9151;DHT22;4610;50.006;7.490;2022-07-18T01:50:15;11.60;99.90
9151;DHT22;4610;50.006;7.490;2022-07-18T01:52:42;11.50;99.90
9151;DHT22;4610;50.006;7.490;2022-07-18T01:55:10;11.50;99.90
9151;DHT22;4610;50.006;7.490;2022-07-18T01:57:38;11.40;99.90
9151;DHT22;4610;50.006;7.490;2022-07-18T02:00:07;11.50;99.90
9151;DHT22;4610;50.006;7.490;2022-07-18T02:02:34;11.50;99.90
9151;DHT22;4610;50.006;7.490;2022-07-18T02:05:03;11.50;99.90
9151;DHT22;4610;50.006;7.490;2022-07-18T02:07:32;11.50;99.90
9151;DHT22;4610;50.006;7.490;2022-07-18T02:10:00;11.50;99.90
9151;DHT22;4610;50.006;7.490;2022-07-18T02:12:28;11.60;99.90
9151;DHT22;4610;50.006;7.490;2022-07-18T02:14:55;11.60;99.90
9151;DHT22;4610;50.006;7.490;2022-07-18T02:17:22;11.60;99.90
9151;DHT22;4610;50.006;7.490;2022-07-18T02:19:49;11.60;99.90
9151;DHT22;4610;50.006;7.490;2022-07-18T02:22:16;11.60;99.90
9151;DHT22;4610;50.006;7.490;2022-07-18T02:24:42;11.50;99.90
9151;DHT22;4610;50.006;7.490;2022-07-18T02:27:10;11.50;99.90
9151;DHT22;4610;50.006;7.490;2022-07-18T02:29:38;11.60;99.90
9151;DHT22;4610;50.006;7.490;2022-07-18T02:32:05;11.60;99.90
9151;DHT22;4610;50.006;7.490;2022-07-18T02:34:32;11.50;99.90
9151;DHT22;4610;50.006;7.490;2022-07-18T02:36:59;11.50;99.90
9151;DHT22;4610;50.006;7.490;2022-07-18T02:39:26;11.50;99.90
9151;DHT22;4610;50.006;7.490;2022-07-18T02:41:53;11.50;99.90
9151;DHT22;4610;50.006;7.490;2022-07-18T02:44:21;11.40;99.90
9151;DHT22;4610;50.006;7.490;2022-07-18T02:46:49;11.50;99.90
9151;DHT22;4610;50.006;7.490;2022-07-18T02:49:16;11.40;99.90
9151;DHT22;4610;50.006;7.490;2022-07-18T02:51:54;11.40;99.90
9151;DHT22;4610;50.006;7.490;2022-07-18T02:54:22;11.40;99.90
9151;DHT22;4610;50.006;7.490;2022-07-18T02:56:49;11.40;99.90
9151;DHT22;4610;50.006;7.490;2022-07-18T02:59:16;11.50;99.90
9151;DHT22;4610;50.006;7.490;2022-07-18T03:01:43;11.50;99.90
9151;DHT22;4610;50.006;7.490;2022-07-18T03:04:11;11.50;99.90
9151;DHT22;4610;50.006;7.490;2022-07-18T03:06:38;11.30;99.90
9151;DHT22;4610;50.006;7.490;2022-07-18T03:09:05;11.30;99.90
9151;DHT22;4610;50.006;7.490;2022-07-18T03:11:32;11.20;99.90
9151;DHT22;4610;50.006;7.490;2022-07-18T03:13:58;11.20;99.90
9151;DHT22;4610;50.006;7.490;2022-07-18T03:16:25;11.10;99.90
9151;DHT22;4610;50.006;7.490;2022-07-18T03:18:52;11.10;99.90
9151;DHT22;4610;50.006;7.490;2022-07-18T03:21:20;11.20;99.90
9151;DHT22;4610;50.006;7.490;2022-07-18T03:23:47;11.20;99.90
9151;DHT22;4610;50.006;7.490;2022-07-18T03:26:14;11.10;99.90
9151;DHT22;4610;50.006;7.490;2022-07-18T03:28:41;11.10;99.90
9151;DHT22;4610;50.006;7.490;2022-07-18T03:31:08;11.10;99.90
9151;DHT22;4610;50.006;7.490;2022-07-18T03:33:35;11.10;99.90
9151;DHT22;4610;50.006;7.490;2022-07-18T03:36:02;11.10;99.90
9151;DHT22;4610;50.006;7.490;2022-07-18T03:38:30;11.00;99.90
9151;DHT22;4610;50.006;7.490;2022-07-18T03:40:57;10.90;99.90
9151;DHT22;4610;50.006;7.490;2022-07-18T03:43:24;10.80;99.90
9151;DHT22;4610;50.006;7.490;2022-07-18T03:45:51;10.80;99.90
9151;DHT22;4610;50.006;7.490;2022-07-18T03:48:18;10.80;99.90
9151;DHT22;4610;50.006;7.490;2022-07-18T03:50:44;10.80;99.90
9151;DHT22;4610;50.006;7.490;2022-07-18T03:53:11;10.80;99.90
9151;DHT22;4610;50.006;7.490;2022-07-18T03:55:39;10.90;99.90
9151;DHT22;4610;50.006;7.490;2022-07-18T03:58:06;10.90;99.90
9151;DHT22;4610;50.006;7.490;2022-07-18T04:00:33;11.00;99.90
9151;DHT22;4610;50.006;7.490;2022-07-18T04:03:00;11.10;99.90
9151;DHT22;4610;50.006;7.490;2022-07-18T04:05:27;11.20;99.90
9151;DHT22;4610;50.006;7.490;2022-07-18T04:07:54;11.20;99.90
9151;DHT22;4610;50.006;7.490;2022-07-18T04:10:21;11.30;99.90
9151;DHT22;4610;50.006;7.490;2022-07-18T04:12:50;11.30;99.90
9151;DHT22;4610;50.006;7.490;2022-07-18T04:15:18;12.30;99.90
9151;DHT22;4610;50.006;7.490;2022-07-18T04:17:45;12.20;99.90
9151;DHT22;4610;50.006;7.490;2022-07-18T04:20:13;12.10;99.90
9151;DHT22;4610;50.006;7.490;2022-07-18T04:22:48;11.90;99.90
9151;DHT22;4610;50.006;7.490;2022-07-18T04:25:15;11.80;99.90
9151;DHT22;4610;50.006;7.490;2022-07-18T04:27:42;11.70;99.90
9151;DHT22;4610;50.006;7.490;2022-07-18T04:30:11;11.80;99.90
9151;DHT22;4610;50.006;7.490;2022-07-18T04:32:38;11.90;99.90
9151;DHT22;4610;50.006;7.490;2022-07-18T04:35:06;11.90;99.90
9151;DHT22;4610;50.006;7.490;2022-07-18T04:37:33;12.20;99.90
9151;DHT22;4610;50.006;7.490;2022-07-18T04:40:01;12.60;99.90
9151;DHT22;4610;50.006;7.490;2022-07-18T04:42:28;13.00;99.90
9151;DHT22;4610;50.006;7.490;2022-07-18T04:44:56;13.30;99.90
9151;DHT22;4610;50.006;7.490;2022-07-18T04:47:25;13.70;99.90
9151;DHT22;4610;50.006;7.490;2022-07-18T04:49:52;14.00;99.90
9151;DHT22;4610;50.006;7.490;2022-07-18T04:52:18;14.40;99.90
9151;DHT22;4610;50.006;7.490;2022-07-18T04:54:45;14.80;99.90
9151;DHT22;4610;50.006;7.490;2022-07-18T04:57:13;15.00;99.90
9151;DHT22;4610;50.006;7.490;2022-07-18T04:59:40;15.40;99.90
9151;DHT22;4610;50.006;7.490;2022-07-18T05:02:07;15.80;99.90
9151;DHT22;4610;50.006;7.490;2022-07-18T05:04:35;16.00;99.90
9151;DHT22;4610;50.006;7.490;2022-07-18T05:07:02;16.30;99.90
9151;DHT22;4610;50.006;7.490;2022-07-18T05:09:29;16.20;99.90
9151;DHT22;4610;50.006;7.490;2022-07-18T05:11:56;16.20;99.90
9151;DHT22;4610;50.006;7.490;2022-07-18T05:14:23;16.40;99.90
9151;DHT22;4610;50.006;7.490;2022-07-18T05:16:50;16.50;99.90
9151;DHT22;4610;50.006;7.490;2022-07-18T05:19:17;16.60;99.90
9151;DHT22;4610;50.006;7.490;2022-07-18T05:21:45;16.90;99.70
9151;DHT22;4610;50.006;7.490;2022-07-18T05:24:12;17.10;99.20
9151;DHT22;4610;50.006;7.490;2022-07-18T05:26:39;18.00;97.40
9151;DHT22;4610;50.006;7.490;2022-07-18T05:29:06;18.00;97.60
9151;DHT22;4610;50.006;7.490;2022-07-18T05:31:33;18.60;96.70
9151;DHT22;4610;50.006;7.490;2022-07-18T05:34:00;19.20;96.00
9151;DHT22;4610;50.006;7.490;2022-07-18T05:36:28;20.30;94.90
9151;DHT22;4610;50.006;7.490;2022-07-18T05:38:56;20.30;95.00
9151;DHT22;4610;50.006;7.490;2022-07-18T05:41:23;20.70;93.50
9151;DHT22;4610;50.006;7.490;2022-07-18T05:43:49;21.20;92.80
9151;DHT22;4610;50.006;7.490;2022-07-18T05:46:16;21.50;92.40
9151;DHT22;4610;50.006;7.490;2022-07-18T05:48:43;21.80;92.10
9151;DHT22;4610;50.006;7.490;2022-07-18T05:51:11;22.20;91.70
9151;DHT22;4610;50.006;7.490;2022-07-18T05:53:38;22.50;91.30
9151;DHT22;4610;50.006;7.490;2022-07-18T05:56:07;22.70;91.20
9151;DHT22;4610;50.006;7.490;2022-07-18T05:58:34;22.70;90.70
9151;DHT22;4610;50.006;7.490;2022-07-18T06:01:01;23.00;90.80
9151;DHT22;4610;50.006;7.490;2022-07-18T06:03:28;23.40;90.10
9151;DHT22;4610;50.006;7.490;2022-07-18T06:05:55;23.70;90.20
9151;DHT22;4610;50.006;7.490;2022-07-18T06:08:21;24.00;89.20
9151;DHT22;4610;50.006;7.490;2022-07-18T06:10:48;24.20;88.30
9151;DHT22;4610;50.006;7.490;2022-07-18T06:13:16;24.50;88.30
9151;DHT22;4610;50.006;7.490;2022-07-18T06:15:43;24.70;87.90
9151;DHT22;4610;50.006;7.490;2022-07-18T06:18:10;24.90;87.40
9151;DHT22;4610;50.006;7.490;2022-07-18T06:20:37;25.20;85.80
9151;DHT22;4610;50.006;7.490;2022-07-18T06:23:03;25.50;85.50
9151;DHT22;4610;50.006;7.490;2022-07-18T06:25:30;25.70;84.80
9151;DHT22;4610;50.006;7.490;2022-07-18T06:27:57;25.90;83.70
9151;DHT22;4610;50.006;7.490;2022-07-18T06:30:25;26.00;83.60
9151;DHT22;4610;50.006;7.490;2022-07-18T06:32:52;26.20;83.30
9151;DHT22;4610;50.006;7.490;2022-07-18T06:35:19;26.70;82.50
9151;DHT22;4610;50.006;7.490;2022-07-18T06:37:46;26.90;81.00
9151;DHT22;4610;50.006;7.490;2022-07-18T06:40:13;27.00;80.70
9151;DHT22;4610;50.006;7.490;2022-07-18T06:42:40;27.30;80.60
9151;DHT22;4610;50.006;7.490;2022-07-18T06:45:07;27.80;79.10
9151;DHT22;4610;50.006;7.490;2022-07-18T06:47:36;27.80;77.90
9151;DHT22;4610;50.006;7.490;2022-07-18T06:50:03;28.00;77.00
9151;DHT22;4610;50.006;7.490;2022-07-18T06:52:30;28.20;77.40
9151;DHT22;4610;50.006;7.490;2022-07-18T06:54:57;28.40;77.10
9151;DHT22;4610;50.006;7.490;2022-07-18T06:57:26;28.60;75.60
9151;DHT22;4610;50.006;7.490;2022-07-18T06:59:53;28.50;75.80
9151;DHT22;4610;50.006;7.490;2022-07-18T07:02:20;28.30;75.00
9151;DHT22;4610;50.006;7.490;2022-07-18T07:04:48;28.00;75.20
9151;DHT22;4610;50.006;7.490;2022-07-18T07:07:15;28.20;75.80
9151;DHT22;4610;50.006;7.490;2022-07-18T07:09:42;28.70;74.50
9151;DHT22;4610;50.006;7.490;2022-07-18T07:12:09;29.20;73.20
9151;DHT22;4610;50.006;7.490;2022-07-18T07:14:36;29.30;73.50
9151;DHT22;4610;50.006;7.490;2022-07-18T07:17:03;29.50;72.20
9151;DHT22;4610;50.006;7.490;2022-07-18T07:19:30;29.70;71.60
9151;DHT22;4610;50.006;7.490;2022-07-18T07:21:58;29.90;73.00
9151;DHT22;4610;50.006;7.490;2022-07-18T07:24:25;30.00;71.00
9151;DHT22;4610;50.006;7.490;2022-07-18T07:26:52;30.40;70.70
9151;DHT22;4610;50.006;7.490;2022-07-18T07:29:19;30.50;70.80
9151;DHT22;4610;50.006;7.490;2022-07-18T07:31:45;30.70;68.80
9151;DHT22;4610;50.006;7.490;2022-07-18T07:34:12;31.00;70.20
9151;DHT22;4610;50.006;7.490;2022-07-18T07:36:40;31.30;66.60
9151;DHT22;4610;50.006;7.490;2022-07-18T07:39:08;31.30;65.90
9151;DHT22;4610;50.006;7.490;2022-07-18T07:41:35;31.50;66.90
9151;DHT22;4610;50.006;7.490;2022-07-18T07:44:02;31.70;66.00
9151;DHT22;4610;50.006;7.490;2022-07-18T07:46:28;32.10;64.60
9151;DHT22;4610;50.006;7.490;2022-07-18T07:48:55;32.00;64.10
9151;DHT22;4610;50.006;7.490;2022-07-18T07:51:22;32.30;64.60
9151;DHT22;4610;50.006;7.490;2022-07-18T07:53:49;32.50;63.80
9151;DHT22;4610;50.006;7.490;2022-07-18T07:56:17;32.40;62.60
9151;DHT22;4610;50.006;7.490;2022-07-18T07:58:45;32.70;62.50
9151;DHT22;4610;50.006;7.490;2022-07-18T08:01:12;33.00;62.70
9151;DHT22;4610;50.006;7.490;2022-07-18T08:03:40;33.50;61.80
9151;DHT22;4610;50.006;7.490;2022-07-18T08:06:07;33.30;61.40
9151;DHT22;4610;50.006;7.490;2022-07-18T08:08:34;33.60;61.70
9151;DHT22;4610;50.006;7.490;2022-07-18T08:11:01;33.60;61.40
9151;DHT22;4610;50.006;7.490;2022-07-18T08:13:29;33.80;61.30
9151;DHT22;4610;50.006;7.490;2022-07-18T08:15:56;33.70;61.30
9151;DHT22;4610;50.006;7.490;2022-07-18T08:18:22;33.80;61.60
9151;DHT22;4610;50.006;7.490;2022-07-18T08:20:49;34.20;62.20
9151;DHT22;4610;50.006;7.490;2022-07-18T08:23:16;34.80;60.60
9151;DHT22;4610;50.006;7.490;2022-07-18T08:25:44;35.00;60.40
9151;DHT22;4610;50.006;7.490;2022-07-18T08:28:12;35.50;60.40
9151;DHT22;4610;50.006;7.490;2022-07-18T08:30:41;35.60;59.10
9151;DHT22;4610;50.006;7.490;2022-07-18T08:33:08;35.70;58.10
9151;DHT22;4610;50.006;7.490;2022-07-18T08:35:35;35.90;58.00
9151;DHT22;4610;50.006;7.490;2022-07-18T08:38:03;36.20;58.30
9151;DHT22;4610;50.006;7.490;2022-07-18T08:40:30;36.40;56.90
9151;DHT22;4610;50.006;7.490;2022-07-18T08:42:58;36.50;55.30
9151;DHT22;4610;50.006;7.490;2022-07-18T08:45:25;36.50;55.10
9151;DHT22;4610;50.006;7.490;2022-07-18T08:47:53;36.20;54.60
9151;DHT22;4610;50.006;7.490;2022-07-18T08:50:21;36.30;55.20
9151;DHT22;4610;50.006;7.490;2022-07-18T08:52:49;36.70;55.20
9151;DHT22;4610;50.006;7.490;2022-07-18T08:55:16;36.70;54.20
9151;DHT22;4610;50.006;7.490;2022-07-18T08:57:43;36.50;54.10
9151;DHT22;4610;50.006;7.490;2022-07-18T09:00:11;36.20;53.50
9151;DHT22;4610;50.006;7.490;2022-07-18T09:02:38;36.50;53.40
9151;DHT22;4610;50.006;7.490;2022-07-18T09:05:17;36.50;53.00
9151;DHT22;4610;50.006;7.490;2022-07-18T09:07:45;36.60;53.00
9151;DHT22;4610;50.006;7.490;2022-07-18T09:10:12;36.50;52.60
9151;DHT22;4610;50.006;7.490;2022-07-18T09:12:38;36.20;52.60
9151;DHT22;4610;50.006;7.490;2022-07-18T09:15:06;36.30;52.50
9151;DHT22;4610;50.006;7.490;2022-07-18T09:17:35;36.40;52.80
9151;DHT22;4610;50.006;7.490;2022-07-18T09:20:04;36.50;53.00
9151;DHT22;4610;50.006;7.490;2022-07-18T09:22:35;36.50;52.30
9151;DHT22;4610;50.006;7.490;2022-07-18T09:25:05;36.50;52.30
9151;DHT22;4610;50.006;7.490;2022-07-18T09:27:36;36.20;52.50
9151;DHT22;4610;50.006;7.490;2022-07-18T09:30:18;36.00;53.50
9151;DHT22;4610;50.006;7.490;2022-07-18T09:32:47;36.30;52.80
9151;DHT22;4610;50.006;7.490;2022-07-18T09:35:17;36.80;53.10
9151;DHT22;4610;50.006;7.490;2022-07-18T09:38:00;36.90;52.90
9151;DHT22;4610;50.006;7.490;2022-07-18T09:40:29;36.90;52.60
9151;DHT22;4610;50.006;7.490;2022-07-18T09:42:58;36.80;53.10
9151;DHT22;4610;50.006;7.490;2022-07-18T09:45:31;36.60;52.70
9151;DHT22;4610;50.006;7.490;2022-07-18T09:47:59;36.80;52.20
9151;DHT22;4610;50.006;7.490;2022-07-18T09:50:32;36.50;51.80
9151;DHT22;4610;50.006;7.490;2022-07-18T09:53:10;36.50;52.60
9151;DHT22;4610;50.006;7.490;2022-07-18T09:55:46;36.40;52.00
9151;DHT22;4610;50.006;7.490;2022-07-18T09:58:17;36.80;52.00
9151;DHT22;4610;50.006;7.490;2022-07-18T10:00:45;36.80;51.60
9151;DHT22;4610;50.006;7.490;2022-07-18T10:03:13;37.00;52.50
9151;DHT22;4610;50.006;7.490;2022-07-18T10:05:41;37.00;51.60
9151;DHT22;4610;50.006;7.490;2022-07-18T10:08:10;37.00;52.00
9151;DHT22;4610;50.006;7.490;2022-07-18T10:10:39;36.70;52.10
9151;DHT22;4610;50.006;7.490;2022-07-18T10:13:07;36.80;52.30
9151;DHT22;4610;50.006;7.490;2022-07-18T10:15:36;37.10;52.50
9151;DHT22;4610;50.006;7.490;2022-07-18T10:18:05;37.40;52.20
9151;DHT22;4610;50.006;7.490;2022-07-18T10:20:35;37.60;50.60
9151;DHT22;4610;50.006;7.490;2022-07-18T10:23:15;37.20;50.40
9151;DHT22;4610;50.006;7.490;2022-07-18T10:25:42;36.90;51.20
9151;DHT22;4610;50.006;7.490;2022-07-18T10:28:10;36.80;51.10
9151;DHT22;4610;50.006;7.490;2022-07-18T10:30:41;37.10;52.10
9151;DHT22;4610;50.006;7.490;2022-07-18T10:33:37;36.80;51.10
9151;DHT22;4610;50.006;7.490;2022-07-18T10:36:06;36.60;51.50
9151;DHT22;4610;50.006;7.490;2022-07-18T10:38:36;36.50;50.70
9151;DHT22;4610;50.006;7.490;2022-07-18T10:41:12;36.40;51.20
9151;DHT22;4610;50.006;7.490;2022-07-18T10:43:44;36.20;52.20
9151;DHT22;4610;50.006;7.490;2022-07-18T10:46:12;36.20;50.70
9151;DHT22;4610;50.006;7.490;2022-07-18T10:48:56;36.20;51.10
9151;DHT22;4610;50.006;7.490;2022-07-18T10:51:30;36.40;52.30
9151;DHT22;4610;50.006;7.490;2022-07-18T10:54:09;36.50;51.20
9151;DHT22;4610;50.006;7.490;2022-07-18T10:57:08;36.50;51.60
9151;DHT22;4610;50.006;7.490;2022-07-18T10:59:36;36.50;50.80
9151;DHT22;4610;50.006;7.490;2022-07-18T11:02:05;36.20;51.00
9151;DHT22;4610;50.006;7.490;2022-07-18T11:04:36;36.20;51.40
9151;DHT22;4610;50.006;7.490;2022-07-18T11:07:06;36.30;50.60
9151;DHT22;4610;50.006;7.490;2022-07-18T11:09:41;36.20;51.20
9151;DHT22;4610;50.006;7.490;2022-07-18T11:12:19;36.10;50.70
9151;DHT22;4610;50.006;7.490;2022-07-18T11:15:06;35.90;52.00
9151;DHT22;4610;50.006;7.490;2022-07-18T11:18:01;35.30;51.30
9151;DHT22;4610;50.006;7.490;2022-07-18T11:20:37;35.30;51.10
9151;DHT22;4610;50.006;7.490;2022-07-18T11:23:13;35.30;51.30
9151;DHT22;4610;50.006;7.490;2022-07-18T11:25:41;34.90;51.20
9151;DHT22;4610;50.006;7.490;2022-07-18T11:28:08;34.80;51.00
9151;DHT22;4610;50.006;7.490;2022-07-18T11:30:36;34.70;51.70
9151;DHT22;4610;50.006;7.490;2022-07-18T11:33:04;34.90;51.20
9151;DHT22;4610;50.006;7.490;2022-07-18T11:35:31;34.80;50.70
9151;DHT22;4610;50.006;7.490;2022-07-18T11:38:04;34.90;51.40
9151;DHT22;4610;50.006;7.490;2022-07-18T11:40:31;34.90;50.70
9151;DHT22;4610;50.006;7.490;2022-07-18T11:42:59;34.80;51.00
9151;DHT22;4610;50.006;7.490;2022-07-18T11:45:26;35.00;51.50
9151;DHT22;4610;50.006;7.490;2022-07-18T11:47:53;35.40;52.00
9151;DHT22;4610;50.006;7.490;2022-07-18T11:50:34;35.50;50.90
9151;DHT22;4610;50.006;7.490;2022-07-18T11:53:01;35.30;51.20
9151;DHT22;4610;50.006;7.490;2022-07-18T11:55:32;35.30;51.40
9151;DHT22;4610;50.006;7.490;2022-07-18T11:58:07;35.40;52.20
9151;DHT22;4610;50.006;7.490;2022-07-18T12:00:34;35.50;50.90
9151;DHT22;4610;50.006;7.490;2022-07-18T12:03:10;35.50;49.80
9151;DHT22;4610;50.006;7.490;2022-07-18T12:05:38;35.20;50.20
9151;DHT22;4610;50.006;7.490;2022-07-18T12:08:24;35.10;50.80
9151;DHT22;4610;50.006;7.490;2022-07-18T12:11:08;35.30;51.50
9151;DHT22;4610;50.006;7.490;2022-07-18T12:13:48;35.50;50.70
9151;DHT22;4610;50.006;7.490;2022-07-18T12:16:26;35.40;49.80
9151;DHT22;4610;50.006;7.490;2022-07-18T12:18:55;34.90;52.70
9151;DHT22;4610;50.006;7.490;2022-07-18T12:21:22;34.80;51.00
9151;DHT22;4610;50.006;7.490;2022-07-18T12:23:49;34.50;50.90
9151;DHT22;4610;50.006;7.490;2022-07-18T12:26:29;34.40;51.20
9151;DHT22;4610;50.006;7.490;2022-07-18T12:29:06;34.60;51.10
9151;DHT22;4610;50.006;7.490;2022-07-18T12:31:37;34.60;51.60
9151;DHT22;4610;50.006;7.490;2022-07-18T12:34:09;34.60;50.70
9151;DHT22;4610;50.006;7.490;2022-07-18T12:36:53;34.40;50.40
9151;DHT22;4610;50.006;7.490;2022-07-18T12:39:28;34.50;52.50
9151;DHT22;4610;50.006;7.490;2022-07-18T12:41:55;34.60;51.60
9151;DHT22;4610;50.006;7.490;2022-07-18T12:44:24;34.50;49.60
9151;DHT22;4610;50.006;7.490;2022-07-18T12:46:51;34.10;49.70
9151;DHT22;4610;50.006;7.490;2022-07-18T12:49:18;33.90;50.10
9151;DHT22;4610;50.006;7.490;2022-07-18T12:51:45;33.60;50.30
9151;DHT22;4610;50.006;7.490;2022-07-18T12:54:13;33.30;50.60
9151;DHT22;4610;50.006;7.490;2022-07-18T12:56:40;33.30;50.10
9151;DHT22;4610;50.006;7.490;2022-07-18T12:59:06;33.30;50.10
9151;DHT22;4610;50.006;7.490;2022-07-18T13:01:35;33.20;50.30
9151;DHT22;4610;50.006;7.490;2022-07-18T13:04:03;33.30;50.50
9151;DHT22;4610;50.006;7.490;2022-07-18T13:06:30;33.70;50.30
9151;DHT22;4610;50.006;7.490;2022-07-18T13:08:57;33.70;50.90
9151;DHT22;4610;50.006;7.490;2022-07-18T13:11:24;33.80;51.30
9151;DHT22;4610;50.006;7.490;2022-07-18T13:13:51;33.90;51.00
9151;DHT22;4610;50.006;7.490;2022-07-18T13:16:18;33.90;50.80
9151;DHT22;4610;50.006;7.490;2022-07-18T13:18:46;33.80;49.90
9151;DHT22;4610;50.006;7.490;2022-07-18T13:21:13;33.60;49.90
9151;DHT22;4610;50.006;7.490;2022-07-18T13:23:41;33.30;50.50
9151;DHT22;4610;50.006;7.490;2022-07-18T13:26:08;33.40;51.40
9151;DHT22;4610;50.006;7.490;2022-07-18T13:28:35;33.40;50.70
9151;DHT22;4610;50.006;7.490;2022-07-18T13:31:02;33.40;50.60
9151;DHT22;4610;50.006;7.490;2022-07-18T13:33:29;33.40;50.50
9151;DHT22;4610;50.006;7.490;2022-07-18T13:35:57;33.40;50.70
9151;DHT22;4610;50.006;7.490;2022-07-18T13:38:24;33.40;51.20
9151;DHT22;4610;50.006;7.490;2022-07-18T13:40:51;33.40;51.50
9151;DHT22;4610;50.006;7.490;2022-07-18T13:43:18;33.40;51.20
9151;DHT22;4610;50.006;7.490;2022-07-18T13:45:45;33.40;50.00
9151;DHT22;4610;50.006;7.490;2022-07-18T13:48:12;33.30;50.60
9151;DHT22;4610;50.006;7.490;2022-07-18T13:50:39;33.30;50.60
9151;DHT22;4610;50.006;7.490;2022-07-18T13:53:07;33.20;51.90
9151;DHT22;4610;50.006;7.490;2022-07-18T13:55:34;33.40;51.30
9151;DHT22;4610;50.006;7.490;2022-07-18T13:58:01;33.40;50.30
9151;DHT22;4610;50.006;7.490;2022-07-18T14:00:28;33.30;50.80
9151;DHT22;4610;50.006;7.490;2022-07-18T14:02:55;33.10;50.30
9151;DHT22;4610;50.006;7.490;2022-07-18T14:05:22;33.00;51.40
9151;DHT22;4610;50.006;7.490;2022-07-18T14:10:17;33.00;51.20
9151;DHT22;4610;50.006;7.490;2022-07-18T14:12:44;33.10;51.50
9151;DHT22;4610;50.006;7.490;2022-07-18T14:15:12;33.20;51.60
9151;DHT22;4610;50.006;7.490;2022-07-18T14:17:39;33.30;51.40
9151;DHT22;4610;50.006;7.490;2022-07-18T14:20:07;33.20;51.30
9151;DHT22;4610;50.006;7.490;2022-07-18T14:22:34;33.20;51.50
9151;DHT22;4610;50.006;7.490;2022-07-18T14:25:01;33.20;51.70
9151;DHT22;4610;50.006;7.490;2022-07-18T14:27:29;33.20;52.20
9151;DHT22;4610;50.006;7.490;2022-07-18T14:29:56;33.10;50.90
9151;DHT22;4610;50.006;7.490;2022-07-18T14:32:24;33.00;50.90
9151;DHT22;4610;50.006;7.490;2022-07-18T14:34:51;32.80;50.60
9151;DHT22;4610;50.006;7.490;2022-07-18T14:37:18;32.60;50.80
9151;DHT22;4610;50.006;7.490;2022-07-18T14:39:46;32.40;50.90
9151;DHT22;4610;50.006;7.490;2022-07-18T14:42:13;32.40;51.70
9151;DHT22;4610;50.006;7.490;2022-07-18T14:44:41;32.40;51.50
9151;DHT22;4610;50.006;7.490;2022-07-18T14:47:08;32.50;51.60
9151;DHT22;4610;50.006;7.490;2022-07-18T14:49:35;32.50;51.70
9151;DHT22;4610;50.006;7.490;2022-07-18T14:52:02;32.60;52.00
9151;DHT22;4610;50.006;7.490;2022-07-18T14:54:29;32.50;52.10
9151;DHT22;4610;50.006;7.490;2022-07-18T14:56:56;32.50;52.30
9151;DHT22;4610;50.006;7.490;2022-07-18T14:59:23;32.40;51.50
9151;DHT22;4610;50.006;7.490;2022-07-18T15:01:51;32.40;52.20
9151;DHT22;4610;50.006;7.490;2022-07-18T15:04:18;32.40;52.20
9151;DHT22;4610;50.006;7.490;2022-07-18T15:06:45;32.10;55.50
9151;DHT22;4610;50.006;7.490;2022-07-18T15:09:12;31.80;53.60
9151;DHT22;4610;50.006;7.490;2022-07-18T15:11:39;31.70;52.30
9151;DHT22;4610;50.006;7.490;2022-07-18T15:14:06;31.80;52.40
9151;DHT22;4610;50.006;7.490;2022-07-18T15:16:33;31.90;51.40
9151;DHT22;4610;50.006;7.490;2022-07-18T15:19:01;31.90;52.00
9151;DHT22;4610;50.006;7.490;2022-07-18T15:21:28;32.00;53.00
9151;DHT22;4610;50.006;7.490;2022-07-18T15:23:55;32.00;52.10
9151;DHT22;4610;50.006;7.490;2022-07-18T15:26:24;32.10;51.80
9151;DHT22;4610;50.006;7.490;2022-07-18T15:28:51;32.10;51.50
9151;DHT22;4610;50.006;7.490;2022-07-18T15:31:18;32.10;52.30
9151;DHT22;4610;50.006;7.490;2022-07-18T15:33:44;32.00;52.40
9151;DHT22;4610;50.006;7.490;2022-07-18T15:36:13;32.00;53.40
9151;DHT22;4610;50.006;7.490;2022-07-18T15:38:39;31.90;54.70
9151;DHT22;4610;50.006;7.490;2022-07-18T15:41:07;31.70;52.90
9151;DHT22;4610;50.006;7.490;2022-07-18T15:43:34;31.70;53.40
9151;DHT22;4610;50.006;7.490;2022-07-18T15:46:01;31.80;52.50
9151;DHT22;4610;50.006;7.490;2022-07-18T15:48:29;31.80;52.10
9151;DHT22;4610;50.006;7.490;2022-07-18T15:50:56;31.90;53.20
9151;DHT22;4610;50.006;7.490;2022-07-18T15:53:24;32.00;52.80
9151;DHT22;4610;50.006;7.490;2022-07-18T15:55:50;32.00;52.50
9151;DHT22;4610;50.006;7.490;2022-07-18T15:58:17;32.00;52.30
9151;DHT22;4610;50.006;7.490;2022-07-18T16:00:44;32.00;53.30
9151;DHT22;4610;50.006;7.490;2022-07-18T16:05:38;31.90;51.80
9151;DHT22;4610;50.006;7.490;2022-07-18T16:08:05;31.80;53.20
9151;DHT22;4610;50.006;7.490;2022-07-18T16:10:34;31.90;52.60
9151;DHT22;4610;50.006;7.490;2022-07-18T16:13:01;31.90;52.40
9151;DHT22;4610;50.006;7.490;2022-07-18T16:15:28;31.80;52.70